Route Details

Aircraft Information
Group: European Fleet
Types: A30F, A31F, B738
Route Data
Distance: 576nm
Duration: 1h 35m
Origin METAR: EDDK 152350Z AUTO 13004KT CAVOK 19/15 Q1007 NOSIG
Dest. METAR: ENGM 152350Z VRB01KT 9999 FEW002 SCT055 BKN090 18/17 Q1010
Freight Data
(for Aug 16, 2022)
Load Factor:
79%
Manifested Cargo: 55,581lbs
Financial History
Total Freight: 426,442lbs
Average Load: 0lbs/flt
Fuel Used: 96,514lbs
Avg. Fuel Used: 0lbs/flt
Fuel Expense: $37,814
Avg. Fuel Expense: $0
Avg. Fuel Cost: $0/lbs
Total Gross Income: $929,184
Pilot Pay: $1,554
Total Expenses: $150,484
Total Revenue: $737,703
Average Revenue: $0

Capitol Logistics 513




EDDK
Cologne Bonn Airport
Cologne, DE
ENGM
Oslo Airport Gardermoen
Oslo, NO